Flight Track Log - Related Links

Times and Time Zones

All times are in EDT time to prevent confusion due to time zone crossing. See the CPZ5714 flight status page for this flight to view local times or setup timezone preferences in your user account.

Time Position Orientation Groundspeed Altitude Reporting Facility
EDT Latitude Longitude Course Direction KTS MPH feet Rate Location/Type
Thu 09:00:14 PM 44.9000 -93.2333 70° East 162 186 2,100  Level Minneapolis TRACON
Thu 09:01:14 PM 44.9667 -93.2500 350° North 204 235 3,800 1,676 Climbing Minneapolis TRACON
Thu 09:02:00 PM 44.9921 -92.7902 69° East  Level FlightAware Approximate
Thu 09:02:05 PM 45.0000 -93.2714 336° Northwest 212 244 5,200  Level Minneapolis Center
Thu 09:03:00 PM 45.0320 -92.6466 68° East  Level FlightAware Approximate
Thu 09:03:07 PM 45.0814 -93.2967 348° North 248 285 8,600  Level Minneapolis Center
Thu 09:04:00 PM 45.0729 -92.5034 68° East  Level FlightAware Approximate
Thu 09:04:09 PM 45.1239 -93.2031 57° Northeast 308 354 10,900  Level Minneapolis Center
Thu 09:05:00 PM 45.1065 -92.3574 70° East  Level FlightAware Approximate
Thu 09:05:11 PM 45.1506 -93.0717 74° East 347 399 12,300  Level Minneapolis Center
Thu 09:06:13 PM 45.1786 -92.9272 75° East 375 432 14,400 2,032 Climbing Minneapolis Center
Thu 09:07:15 PM 45.2072 -92.7817 74° East 382 440 16,500 1,824 Climbing Minneapolis Center
Thu 09:08:18 PM 45.2372 -92.6311 74° East 396 456 18,200 1,452 Climbing Minneapolis Center
Thu 09:09:19 PM 45.2603 -92.5103 75° East 398 458 19,500 1,561 Climbing Minneapolis Center
Thu 09:10:21 PM 45.2975 -92.3142 75° East 422 486 21,400 1,632 Climbing Minneapolis Center
Thu 09:11:24 PM 45.3278 -92.1111 78° East 436 502 22,900 1,392 Climbing Minneapolis Center
Thu 09:12:26 PM 45.3531 -91.9339 78° East 453 521 24,300 1,355 Climbing Minneapolis Center
Thu 09:13:28 PM 45.3761 -91.7550 80° East 461 531 25,700 1,065 Climbing Minneapolis Center
Thu 09:14:30 PM 45.4008 -91.5753 79° East 463 533 26,500 919 Climbing Minneapolis Center
Thu 09:15:32 PM 45.4292 -91.3506 80° East 478 550 27,600 919 Climbing Minneapolis Center
Thu 09:16:34 PM 45.4533 -91.1900 78° East 483 556 28,400 823 Climbing Minneapolis Center
Thu 09:17:36 PM 45.4908 -90.9647 77° East 488 562 29,300 871 Climbing Minneapolis Center
Thu 09:18:38 PM 45.5261 -90.7758 75° East 493 567 30,200 871 Climbing Minneapolis Center
Thu 09:19:40 PM 45.5606 -90.5897 75° East 488 562 31,100 871 Climbing Minneapolis Center
Thu 09:20:42 PM 45.5931 -90.4039 76° East 485 558 32,000 823 Climbing Minneapolis Center
Thu 09:21:44 PM 45.6289 -90.2197 74° East 482 555 32,800 871 Climbing Minneapolis Center
Thu 09:22:46 PM 45.6617 -90.0386 75° East 474 545 33,800 720 Climbing Minneapolis Center
Thu 09:23:49 PM 45.6578 -89.8097 91° East 484 557 34,300 432 Climbing Minneapolis Center
Thu 09:24:51 PM 45.6525 -89.6231 92° East 485 558 34,700 339 Climbing Minneapolis Center
Thu 09:25:53 PM 45.6278 -89.4342 101° East 484 557 35,000 145 Climbing Minneapolis Center
Thu 09:26:55 PM 45.5989 -89.2403 102° East 492 566 35,000  Level Minneapolis Center
Thu 09:27:56 PM 45.5758 -89.0864 102° East 500 575 35,000  Level Minneapolis Center
Thu 09:28:59 PM 45.5378 -88.8169 101° East 499 574 35,000  Level Minneapolis Center
Thu 09:30:00 PM 45.5156 -88.6642 102° East 496 571 35,000  Level Minneapolis Center
Thu 09:31:03 PM 45.4825 -88.4347 102° East 496 571 35,000  Level Minneapolis Center
Thu 09:32:05 PM 45.4531 -88.2447 102° East 494 568 35,000  Level Minneapolis Center
Thu 09:33:07 PM 45.4183 -88.0306 103° East 497 572 35,000  Level Minneapolis Center
Thu 09:34:09 PM 45.3944 -87.8386 100° East 494 568 35,000  Level Minneapolis Center
Thu 09:35:10 PM 45.3864 -87.6425 93° East 495 570 35,000  Level Minneapolis Center
Thu 09:36:25 PM 45.3847 -87.4075 90° East 496 571 35,000  Level Minneapolis Center
Thu 09:37:27 PM 45.3806 -87.2117 92° East 494 568 35,000  Level Minneapolis Center
Thu 09:38:28 PM 45.3794 -87.0561 91° East 493 567 35,000  Level Minneapolis Center
Thu 09:39:30 PM 45.3731 -86.7819 92° East 494 568 35,000  Level Minneapolis Center
Thu 09:40:32 PM 45.3697 -86.5875 91° East 492 566 35,000  Level Minneapolis Center
Thu 09:41:34 PM 45.3656 -86.3939 92° East 489 563 35,000  Level Minneapolis Center
Thu 09:42:36 PM 45.3617 -86.1969 92° East 494 568 35,000  Level Minneapolis Center
Thu 09:43:38 PM 45.3569 -86.0014 92° East 493 567 35,000  Level Minneapolis Center
Thu 09:44:39 PM 45.3514 -85.8069 92° East 491 565 35,000  Level Minneapolis Center
Thu 09:45:41 PM 45.3456 -85.6119 92° East 491 565 35,000  Level Minneapolis Center
Thu 09:46:43 PM 45.3400 -85.4161 92° East 494 568 35,000  Level Minneapolis Center
Thu 09:47:45 PM 45.3328 -85.1814 92° East 495 570 35,000  Level Minneapolis Center
Thu 09:48:46 PM 45.3272 -84.9864 92° East 493 567 35,000  Level Minneapolis Center
Thu 09:49:48 PM 45.3194 -84.7911 93° East 495 570 35,000  Level Minneapolis Center
Thu 09:50:50 PM 45.3119 -84.5958 93° East 495 570 35,000  Level Minneapolis Center
Thu 09:51:51 PM 45.3050 -84.4022 93° East 495 570 35,000  Level Minneapolis Center
Thu 09:52:53 PM 45.2961 -84.2125 94° East 490 564 35,000  Level Minneapolis Center
Thu 09:53:54 PM 45.2900 -84.0650 93° East 482 555 35,000  Level Minneapolis Center
Thu 09:54:56 PM 45.2800 -83.8400 94° East 477 549 35,000  Level Minneapolis Center
Thu 09:56:10 PM 45.2694 -83.6147 94° East 478 550 35,000  Level Minneapolis Center
Thu 09:57:12 PM 45.2606 -83.3894 93° East 478 550 35,000  Level Minneapolis Center
Thu 09:58:13 PM 45.2511 -83.2042 94° East 475 547 35,000  Level Minneapolis Center
Thu 09:59:15 PM 45.2414 -83.0181 94° East 474 545 35,000  Level Minneapolis Center
Thu 10:00:17 PM 45.2314 -82.8319 94° East 474 545 35,000  Level Minneapolis Center
Thu 10:01:28 PM 45.2000 -82.5833 100° East 470 541 35,000  Level Toronto Center
Thu 10:02:28 PM 45.1833 -82.4000 97° East 470 541 35,000  Level Toronto Center
Thu 10:03:28 PM 45.1333 -82.2167 111° Southeast 470 541 35,000  Level Toronto Center
Thu 10:04:28 PM 45.1000 -82.0500 106° East 470 541 35,000  Level Toronto Center
Thu 10:05:28 PM 45.0667 -81.8833 106° East 470 541 35,000  Level Toronto Center
Thu 10:06:28 PM 45.0333 -81.6833 103° East 460 529 35,000  Level Toronto Center
Thu 10:07:28 PM 44.9833 -81.5167 113° Southeast 460 529 35,000  Level Toronto Center
Thu 10:08:28 PM 44.9500 -81.3500 106° East 460 529 35,000  Level Toronto Center
Thu 10:09:28 PM 44.9000 -81.1833 113° Southeast 460 529 35,000  Level Toronto Center
Thu 10:10:28 PM 44.8667 -81.0167 106° East 460 529 35,000  Level Toronto Center
Thu 10:11:28 PM 44.8333 -80.8333 104° East 460 529 35,000  Level Toronto Center
Thu 10:12:28 PM 44.8000 -80.6667 106° East 470 541 35,000  Level Toronto Center
Thu 10:13:28 PM 44.7500 -80.4833 111° Southeast 470 541 35,000  Level Toronto Center
Thu 10:14:28 PM 44.7000 -80.3167 113° Southeast 470 541 35,000  Level Toronto Center
Thu 10:15:28 PM 44.6667 -80.1500 106° East 470 541 35,000  Level Toronto Center
Thu 10:16:28 PM 44.6167 -79.9833 113° Southeast 470 541 35,000  Level Toronto Center
Thu 10:17:28 PM 44.5833 -79.8167 106° East 460 529 35,000  Level Toronto Center
Thu 10:18:28 PM 44.5333 -79.6333 111° Southeast 450 518 35,000  Level Toronto Center
Thu 10:19:28 PM 44.5000 -79.4667 106° East 450 518 35,000  Level Toronto Center
Thu 10:20:29 PM 44.4500 -79.3333 118° Southeast 450 518 35,000  Level Toronto Center
Thu 10:21:28 PM 44.4167 -79.1500 104° East 450 518 35,000  Level Toronto Center
Thu 10:22:28 PM 44.3667 -79.0000 115° Southeast 440 506 35,000  Level Toronto Center
Thu 10:23:28 PM 44.3167 -78.8167 111° Southeast 440 506 35,000  Level Toronto Center
Thu 10:24:28 PM 44.2833 -78.6833 109° East 430 495 35,000  Level Toronto Center
Thu 10:25:29 PM 44.2333 -78.5167 113° Southeast 430 495 35,000  Level Toronto Center
Thu 10:26:28 PM 44.1833 -78.3500 113° Southeast 440 506 35,000  Level Toronto Center
Thu 10:27:28 PM 44.1500 -78.2000 107° East 440 506 35,000  Level Toronto Center
Thu 10:28:28 PM 44.1000 -78.0333 113° Southeast 450 518 35,000  Level Toronto Center
Thu 10:29:28 PM 44.0667 -77.8667 106° East 440 506 35,000  Level Toronto Center
Thu 10:30:28 PM 44.0167 -77.7167 115° Southeast 440 506 35,000 -350 Level Toronto Center
Thu 10:31:28 PM 43.9667 -77.5667 115° Southeast 440 506 34,300 -1,000 Descending Toronto Center
Thu 10:32:28 PM 43.9333 -77.3833 104° East 440 506 33,000 -650 Descending Toronto Center
Thu 10:33:28 PM 43.8667 -77.2333 122° Southeast 450 518 33,000  Level Toronto Center
Thu 10:34:28 PM 43.8333 -77.0667 105° East 450 518 33,000  Level Toronto Center
Thu 10:35:28 PM 43.7833 -76.9000 113° Southeast 450 518 33,000  Level Toronto Center
Thu 10:36:28 PM 43.7333 -76.7500 115° Southeast 450 518 33,000  Level Toronto Center
Thu 10:37:28 PM 43.6833 -76.6167 117° Southeast 450 518 33,000 -65 Level Toronto Center
Thu 10:38:00 PM 43.6667 -76.5481 109° East 446 513 32,900 -750 Descending Boston Center
Thu 10:39:12 PM 43.6094 -76.4006 118° Southeast 439 505 31,700 -1,591 Descending Boston Center
Thu 10:40:12 PM 43.5383 -76.2211 119° Southeast 439 505 29,400 -2,083 Descending Boston Center
Thu 10:41:13 PM 43.4786 -76.0686 118° Southeast 449 517 27,500 -1,884 Descending Boston Center
Thu 10:42:13 PM 43.4206 -75.9222 119° Southeast 449 517 25,600 -1,916 Descending Boston Center
Thu 10:43:12 PM 43.3731 -75.7708 113° Southeast 444 511 23,700 -1,900 Descending Boston Center
Thu 10:44:13 PM 43.3272 -75.6228 113° Southeast 434 499 21,800 -1,884 Descending Boston Center
Thu 10:45:13 PM 43.2811 -75.4833 114° Southeast 415 478 19,900 -2,000 Descending Boston Center
Thu 10:46:13 PM 43.2425 -75.3589 113° Southeast 400 460 17,800 -1,966 Descending Boston Center
Thu 10:47:12 PM 43.2042 -75.2231 111° Southeast 386 444 16,000 -1,765 Descending Boston Center
Thu 10:48:12 PM 43.1633 -75.1017 115° Southeast 367 422 14,300 -1,613 Descending Boston Center
Thu 10:49:11 PM 43.1225 -74.9719 113° Southeast 355 409 12,800 -1,563 Descending Boston Center
Thu 10:50:11 PM 43.0894 -74.8653 113° Southeast 318 366 11,200 -843 Descending Boston Center
Thu 10:51:12 PM 43.0542 -74.7589 114° Southeast 295 339 11,100 -50 Descending Boston Center
Thu 10:52:12 PM 43.0189 -74.6439 113° Southeast 304 350 11,100  Level Boston Center
Thu 10:53:24 PM 42.9814 -74.5289 114° Southeast 302 348 11,100 -281 Level Boston Center
Thu 10:54:20 PM 42.9500 -74.4286 113° Southeast 294 338 10,500 -1,255 Descending Boston Center
Thu 10:55:14 PM 42.9222 -74.3397 113° Southeast 273 314 8,800 -1,722 Descending Boston Center
Thu 10:56:15 PM 42.8925 -74.2425 113° Southeast 273 314 7,200 -1,686 Descending Boston Center
Thu 10:57:15 PM 42.8331 -74.1897 147° Southeast 263 303 5,400 -1,512 Descending Boston Center
Thu 10:58:22 PM 42.7608 -74.1283 148° Southeast 259 298 4,000 -656 Descending Boston Center
Thu 10:59:23 PM 42.7011 -74.0786 149° Southeast 255 293 4,000  Level Boston Center
Thu 11:00:17 PM 42.6456 -74.0319 148° Southeast 256 295 4,000  Level Boston Center
Thu 11:01:18 PM 42.5858 -73.9797 147° Southeast 251 289 4,000 -397 Level Boston Center
Thu 11:02:18 PM 42.5639 -73.9003 111° Southeast 226 260 3,200 -545 Descending Boston Center
Thu 11:03:19 PM 42.5628 -73.8297 91° East 186 214 2,900 -295 Descending Boston Center

Login

Don't have an account? Register now (free) for customized features, flight alerts, and more!